createdAt,value
2022-10-20T00:00:52.256Z,1.67
2022-10-20T00:03:21.375Z,1.70
2022-10-20T00:05:48.733Z,1.95
2022-10-20T00:08:15.983Z,1.52
2022-10-20T00:10:43.692Z,1.83
2022-10-20T00:13:11.277Z,2.03
2022-10-20T00:15:38.588Z,1.48
2022-10-20T00:18:05.775Z,1.95
2022-10-20T00:20:34.368Z,0.80
2022-10-20T00:23:01.597Z,1.70
2022-10-20T00:25:28.981Z,1.52
2022-10-20T00:27:56.313Z,1.45
2022-10-20T00:30:25.074Z,1.80
2022-10-20T00:32:53.079Z,1.08
2022-10-20T00:35:20.419Z,1.23
2022-10-20T00:37:49.148Z,0.90
2022-10-20T00:40:16.360Z,1.08
2022-10-20T00:42:44.773Z,1.02
2022-10-20T00:45:14.869Z,0.88
2022-10-20T00:47:47.921Z,1.30
2022-10-20T00:50:18.641Z,0.90
2022-10-20T00:52:47.194Z,0.80
2022-10-20T00:55:19.726Z,0.70
2022-10-20T00:57:50.049Z,0.80
2022-10-20T01:00:18.048Z,1.00
2022-10-20T01:02:46.029Z,0.70
2022-10-20T01:05:13.931Z,1.00
2022-10-20T01:07:41.642Z,0.50
2022-10-20T01:10:10.162Z,0.68
2022-10-20T01:12:47.119Z,0.52
2022-10-20T01:18:04.967Z,0.77
2022-10-20T01:21:04.446Z,0.73
2022-10-20T01:23:49.821Z,0.70
2022-10-20T01:27:07.814Z,0.98
2022-10-20T01:29:40.347Z,0.95
2022-10-20T01:32:15.674Z,1.05
2022-10-20T01:34:52.970Z,0.95
2022-10-20T01:37:34.284Z,0.85
2022-10-20T01:40:16.542Z,0.52
2022-10-20T01:42:47.624Z,0.90
2022-10-20T01:45:18.879Z,1.10
2022-10-20T01:47:47.968Z,0.93
2022-10-20T01:50:17.369Z,1.10
2022-10-20T01:52:44.671Z,0.98
2022-10-20T01:55:14.017Z,1.20
2022-10-20T01:57:54.203Z,1.10
2022-10-20T02:00:23.383Z,0.90
2022-10-20T02:03:14.377Z,1.27
2022-10-20T02:05:53.309Z,0.93
2022-10-20T02:08:28.573Z,1.67
2022-10-20T02:10:59.207Z,1.08
2022-10-20T02:13:29.653Z,1.45
2022-10-20T02:16:01.979Z,1.23
2022-10-20T02:18:34.339Z,0.80
2022-10-20T02:21:04.324Z,1.05
2022-10-20T02:23:37.230Z,0.88
2022-10-20T02:26:07.553Z,1.10
2022-10-20T02:28:37.669Z,1.38
2022-10-20T02:31:06.788Z,0.90
2022-10-20T02:33:36.057Z,0.82
2022-10-20T02:36:06.510Z,1.10
2022-10-20T02:38:33.850Z,0.90
2022-10-20T02:41:01.047Z,1.00
2022-10-20T02:43:28.305Z,1.10
2022-10-20T02:45:55.551Z,1.13
2022-10-20T02:48:24.419Z,1.17
2022-10-20T02:50:52.291Z,0.98
2022-10-20T02:53:19.635Z,0.65
2022-10-20T02:55:47.211Z,0.70
2022-10-20T02:58:14.554Z,0.82
2022-10-20T03:00:41.885Z,0.70
2022-10-20T03:03:09.204Z,0.70
2022-10-20T03:05:41.971Z,0.70
2022-10-20T03:08:09.130Z,1.00
2022-10-20T03:10:37.639Z,0.60
2022-10-20T03:13:05.169Z,0.68
2022-10-20T03:15:32.843Z,1.10
2022-10-20T03:18:00.062Z,1.00
2022-10-20T03:20:27.352Z,1.00
2022-10-20T03:22:55.908Z,0.52
2022-10-20T03:25:23.284Z,0.70
2022-10-20T03:27:52.536Z,1.00
2022-10-20T03:30:20.024Z,0.73
2022-10-20T03:32:47.430Z,0.75
2022-10-20T03:35:14.863Z,0.70
2022-10-20T03:37:42.114Z,0.68
2022-10-20T03:40:11.400Z,0.80
2022-10-20T03:42:39.317Z,0.70
2022-10-20T03:45:08.541Z,1.05
2022-10-20T03:47:36.133Z,0.95
2022-10-20T03:52:32.385Z,0.70
2022-10-20T03:54:59.681Z,0.73
2022-10-20T03:57:28.338Z,0.80
2022-10-20T03:59:55.601Z,1.05
2022-10-20T04:02:31.272Z,1.10
2022-10-20T04:04:58.620Z,1.00
2022-10-20T04:07:26.285Z,1.00
2022-10-20T04:09:53.589Z,1.08
2022-10-20T04:12:21.017Z,0.77
2022-10-20T04:14:49.649Z,1.50
2022-10-20T04:17:16.925Z,1.73
2022-10-20T04:19:44.114Z,0.68
2022-10-20T04:22:11.434Z,1.67
2022-10-20T04:24:38.893Z,1.05
2022-10-20T04:27:06.146Z,1.48
2022-10-20T04:29:33.777Z,1.42
2022-10-20T04:32:02.435Z,1.20
2022-10-20T04:34:29.716Z,1.15
2022-10-20T04:36:57.555Z,1.70
2022-10-20T04:39:25.553Z,0.98
2022-10-20T04:41:52.955Z,1.85
2022-10-20T04:44:20.564Z,1.83
2022-10-20T04:46:48.282Z,2.08
2022-10-20T04:49:17.344Z,2.47
2022-10-20T04:51:44.719Z,2.10
2022-10-20T04:54:12.064Z,2.17
2022-10-20T04:56:39.569Z,2.60
2022-10-20T04:59:09.664Z,2.72
2022-10-20T05:01:40.275Z,3.10
2022-10-20T05:04:07.615Z,2.75
2022-10-20T05:06:36.189Z,2.58
2022-10-20T05:09:06.087Z,2.15
2022-10-20T05:11:36.905Z,2.72
2022-10-20T05:14:04.590Z,2.72
2022-10-20T05:16:31.860Z,2.65
2022-10-20T05:18:59.510Z,3.30
2022-10-20T05:21:29.001Z,2.65
2022-10-20T05:23:59.006Z,2.22
2022-10-20T05:26:28.401Z,3.03
2022-10-20T05:28:55.669Z,3.05
2022-10-20T05:31:23.616Z,3.17
2022-10-20T05:33:52.470Z,2.67
2022-10-20T05:36:21.910Z,2.38
2022-10-20T05:38:50.881Z,2.40
2022-10-20T05:41:21.438Z,2.65
2022-10-20T05:43:49.681Z,2.17
2022-10-20T05:46:17.147Z,2.80
2022-10-20T05:48:44.612Z,2.40
2022-10-20T05:51:15.764Z,3.40
2022-10-20T05:53:43.667Z,2.45
2022-10-20T05:56:13.212Z,2.38
2022-10-20T05:58:42.532Z,2.47
2022-10-20T06:01:17.127Z,2.13
2022-10-20T06:03:47.833Z,0.93
2022-10-20T06:06:15.381Z,2.30
2022-10-20T06:08:42.974Z,2.30
2022-10-20T06:11:12.623Z,2.15
2022-10-20T06:13:41.477Z,2.15
2022-10-20T06:16:10.684Z,2.03
2022-10-20T06:18:38.979Z,2.25
2022-10-20T06:21:07.787Z,2.28
2022-10-20T06:23:35.125Z,2.17
2022-10-20T06:26:03.196Z,1.77
2022-10-20T06:28:31.890Z,2.40
2022-10-20T06:31:01.221Z,1.85
2022-10-20T06:33:30.495Z,1.80
2022-10-20T06:36:01.204Z,2.05
2022-10-20T06:38:28.518Z,1.63
2022-10-20T06:40:56.007Z,1.20
2022-10-20T06:43:23.576Z,2.20
2022-10-20T06:45:57.444Z,2.15
2022-10-20T06:48:26.485Z,1.88
2022-10-20T06:50:57.001Z,2.17
2022-10-20T06:53:24.936Z,1.65
2022-10-20T06:56:00.118Z,2.20
2022-10-20T06:58:28.644Z,1.73
2022-10-20T07:01:00.487Z,1.88
2022-10-20T07:03:30.424Z,2.15
2022-10-20T07:05:57.838Z,1.92
2022-10-20T07:08:28.258Z,1.67
2022-10-20T07:11:00.889Z,1.90
2022-10-20T07:13:29.977Z,1.80
2022-10-20T07:15:58.110Z,2.60
2022-10-20T07:18:27.045Z,2.05
2022-10-20T07:20:59.202Z,2.20
2022-10-20T07:23:28.261Z,1.77
2022-10-20T07:26:00.876Z,1.90
2022-10-20T07:28:28.381Z,1.77
2022-10-20T07:30:55.972Z,1.70
2022-10-20T07:33:23.505Z,1.42
2022-10-20T07:35:51.524Z,1.42
2022-10-20T07:38:20.295Z,1.35
2022-10-20T07:40:47.510Z,1.48
2022-10-20T07:43:14.931Z,1.75
2022-10-20T07:45:42.304Z,1.45
2022-10-20T07:48:10.197Z,1.45
2022-10-20T07:50:38.146Z,0.95
2022-10-20T07:53:06.569Z,1.40
2022-10-20T07:55:39.333Z,1.58
2022-10-20T07:58:06.907Z,1.17
2022-10-20T08:00:34.496Z,1.20
2022-10-20T08:03:01.924Z,1.42
2022-10-20T08:05:30.033Z,1.50
2022-10-20T08:07:58.307Z,1.45
2022-10-20T08:10:25.761Z,1.63
2022-10-20T08:12:54.415Z,1.90
2022-10-20T08:15:21.753Z,1.60
2022-10-20T08:17:49.040Z,1.00
2022-10-20T08:20:28.757Z,1.50
2022-10-20T08:22:56.160Z,1.50
2022-10-20T08:25:23.600Z,0.98
2022-10-20T08:27:50.806Z,1.25
2022-10-20T08:30:23.920Z,1.35
2022-10-20T08:32:52.577Z,1.40
2022-10-20T08:35:20.333Z,1.13
2022-10-20T08:37:47.743Z,1.60
2022-10-20T08:40:18.114Z,1.73
2022-10-20T08:42:47.011Z,1.27
2022-10-20T08:45:16.085Z,0.90
2022-10-20T08:47:47.729Z,0.95
2022-10-20T08:50:17.471Z,0.93
2022-10-20T08:52:47.959Z,0.93
2022-10-20T08:55:23.262Z,1.08
2022-10-20T08:57:50.684Z,1.13
2022-10-20T09:00:20.734Z,0.98
2022-10-20T09:02:50.918Z,0.88
2022-10-20T09:05:23.125Z,1.13
2022-10-20T09:07:52.367Z,1.42
2022-10-20T09:10:29.280Z,1.60
2022-10-20T09:12:57.666Z,1.52
2022-10-20T09:15:27.050Z,1.30
2022-10-20T09:17:59.304Z,1.50
2022-10-20T09:20:30.725Z,1.50
2022-10-20T09:22:58.404Z,1.27
2022-10-20T09:25:27.876Z,1.45
2022-10-20T09:27:57.544Z,1.40
2022-10-20T09:30:36.158Z,1.38
2022-10-20T09:33:25.790Z,1.48
2022-10-20T09:35:53.261Z,1.05
2022-10-20T09:38:25.148Z,1.35
2022-10-20T09:41:03.195Z,1.00
2022-10-20T09:43:30.980Z,1.25
2022-10-20T09:46:04.292Z,0.75
2022-10-20T09:48:36.741Z,1.00
2022-10-20T09:51:07.798Z,0.80
2022-10-20T09:53:46.314Z,0.93
2022-10-20T09:56:23.060Z,1.17
2022-10-20T09:58:50.529Z,0.88
2022-10-20T10:01:19.846Z,1.02
2022-10-20T10:03:49.826Z,0.80
2022-10-20T10:06:26.591Z,1.23
2022-10-20T10:08:54.541Z,1.42
2022-10-20T10:11:24.787Z,0.93
2022-10-20T10:13:53.968Z,0.60
2022-10-20T10:16:26.775Z,1.17
2022-10-20T10:19:04.060Z,0.90
2022-10-20T10:21:47.022Z,1.17
2022-10-20T10:24:38.050Z,0.70
2022-10-20T10:27:07.217Z,0.90
2022-10-20T10:29:38.097Z,0.80
2022-10-20T10:32:15.695Z,1.08
2022-10-20T10:35:08.298Z,1.10
2022-10-20T10:37:40.633Z,1.27
2022-10-20T10:40:16.493Z,1.05
2022-10-20T10:42:55.740Z,1.35
2022-10-20T10:45:46.322Z,1.15
2022-10-20T10:48:35.766Z,0.50
2022-10-20T10:51:15.945Z,0.85
2022-10-20T10:53:55.783Z,0.90
2022-10-20T10:56:30.862Z,1.17
2022-10-20T10:59:03.305Z,1.10
2022-10-20T11:01:54.269Z,1.20
2022-10-20T11:04:51.768Z,0.85
2022-10-20T11:07:30.168Z,0.60
2022-10-20T11:10:07.946Z,0.80
2022-10-20T11:12:55.088Z,0.55
2022-10-20T11:15:39.484Z,0.70
2022-10-20T11:18:15.005Z,0.70
2022-10-20T11:20:50.937Z,0.88
2022-10-20T11:23:50.498Z,0.90
2022-10-20T11:26:26.695Z,0.75
2022-10-20T11:28:58.101Z,0.73
2022-10-20T11:31:32.529Z,0.70
2022-10-20T11:34:07.284Z,0.70
2022-10-20T11:36:39.515Z,0.85
2022-10-20T11:39:23.807Z,0.80
2022-10-20T11:42:00.055Z,0.80
2022-10-20T11:44:36.456Z,0.75
2022-10-20T11:47:08.225Z,1.17
2022-10-20T11:49:40.403Z,0.68
2022-10-20T11:52:29.612Z,0.88
2022-10-20T11:55:32.882Z,0.52
2022-10-20T11:58:27.392Z,0.82
2022-10-20T12:01:08.224Z,0.85
2022-10-20T12:04:23.369Z,0.77
2022-10-20T12:07:12.279Z,0.60
2022-10-20T12:10:04.970Z,0.43
2022-10-20T12:12:42.388Z,0.40
2022-10-20T12:15:24.649Z,0.70
2022-10-20T12:17:53.907Z,0.40
2022-10-20T12:20:59.914Z,0.30
2022-10-20T12:23:54.788Z,0.50
2022-10-20T12:26:42.383Z,0.60
2022-10-20T12:29:48.793Z,0.50
2022-10-20T12:32:46.476Z,0.60
2022-10-20T12:35:54.466Z,0.60
2022-10-20T12:38:23.543Z,0.50
2022-10-20T12:40:59.160Z,0.88
2022-10-20T12:43:33.731Z,0.70
2022-10-20T12:46:08.681Z,0.63
2022-10-20T12:48:44.816Z,0.57
2022-10-20T12:51:21.926Z,0.93
2022-10-20T12:54:00.706Z,0.70
2022-10-20T12:56:35.543Z,0.80
2022-10-20T12:59:41.984Z,0.40
2022-10-20T13:02:49.495Z,0.50
2022-10-20T13:05:48.630Z,0.82
2022-10-20T13:08:33.911Z,0.95
2022-10-20T13:11:38.852Z,0.40
2022-10-20T13:14:41.605Z,0.47
2022-10-20T13:17:25.998Z,0.85
2022-10-20T13:20:01.695Z,0.70
2022-10-20T13:22:46.937Z,0.75
2022-10-20T13:25:36.258Z,0.45
2022-10-20T13:28:38.385Z,0.50
2022-10-20T13:31:22.356Z,0.75
2022-10-20T13:34:04.326Z,0.60
2022-10-20T13:36:48.222Z,0.70
2022-10-20T13:39:22.495Z,0.43
2022-10-20T13:42:03.177Z,0.40
2022-10-20T13:44:40.586Z,0.75
2022-10-20T13:47:32.198Z,0.82
2022-10-20T13:50:07.618Z,0.47
2022-10-20T13:52:42.019Z,0.65
2022-10-20T13:55:18.383Z,0.70
2022-10-20T13:57:55.434Z,1.20
2022-10-20T14:00:27.565Z,1.00
2022-10-20T14:03:03.131Z,0.93
2022-10-20T14:05:36.794Z,0.82
2022-10-20T14:08:09.172Z,1.00
2022-10-20T14:10:44.755Z,1.05
2022-10-20T14:13:19.276Z,0.80
2022-10-20T14:15:50.450Z,1.40
2022-10-20T14:18:27.709Z,0.40
2022-10-20T14:21:00.262Z,1.17
2022-10-20T14:23:30.980Z,1.10
2022-10-20T14:26:00.400Z,0.80
2022-10-20T14:28:33.123Z,1.10
2022-10-20T14:31:03.096Z,1.08
2022-10-20T14:33:36.869Z,0.90
2022-10-20T14:36:05.449Z,0.90
2022-10-20T14:38:35.725Z,1.02
2022-10-20T14:41:06.800Z,0.82
2022-10-20T14:43:39.590Z,0.50
2022-10-20T14:46:10.071Z,1.08
2022-10-20T14:48:41.883Z,0.77
2022-10-20T14:51:28.275Z,0.57
2022-10-20T14:54:24.162Z,0.73
2022-10-20T14:56:54.543Z,1.10
2022-10-20T14:59:23.437Z,0.65
2022-10-20T15:02:08.850Z,1.13
2022-10-20T15:07:08.008Z,0.82
2022-10-20T15:09:41.542Z,1.00
2022-10-20T15:12:17.837Z,0.88
2022-10-20T15:14:48.426Z,0.68
2022-10-20T15:17:31.538Z,0.50
2022-10-20T15:19:59.081Z,0.85
2022-10-20T15:22:26.307Z,0.90
2022-10-20T15:24:53.731Z,0.68
2022-10-20T15:27:23.325Z,1.10
2022-10-20T15:29:52.392Z,1.00
2022-10-20T15:32:19.798Z,1.08
2022-10-20T15:34:47.454Z,0.80
2022-10-20T15:37:15.896Z,1.23
2022-10-20T15:39:43.839Z,0.40
2022-10-20T15:42:12.161Z,1.20
2022-10-20T15:44:41.120Z,0.98
2022-10-20T15:47:11.453Z,1.05
2022-10-20T15:49:40.552Z,0.80
2022-10-20T15:52:10.822Z,0.70
2022-10-20T15:54:38.190Z,0.90
2022-10-20T15:57:05.537Z,0.80
2022-10-20T15:59:32.845Z,0.90
2022-10-20T16:02:02.199Z,0.75
2022-10-20T16:04:32.536Z,0.65
2022-10-20T16:07:03.278Z,0.65
2022-10-20T16:09:32.619Z,0.60
2022-10-20T16:12:00.847Z,0.32
2022-10-20T16:14:31.522Z,0.40
2022-10-20T16:17:01.965Z,0.50
2022-10-20T16:19:31.561Z,0.50
2022-10-20T16:22:02.148Z,0.65
2022-10-20T16:24:29.847Z,0.70
2022-10-20T16:29:30.677Z,0.90
2022-10-20T16:31:58.569Z,0.65
2022-10-20T16:34:27.987Z,0.80
2022-10-20T16:36:58.165Z,0.80
2022-10-20T16:39:25.673Z,0.80
2022-10-20T16:41:52.932Z,0.95
2022-10-20T16:44:20.197Z,1.00
2022-10-20T16:46:47.663Z,0.98
2022-10-20T16:49:14.936Z,1.00
2022-10-20T16:51:42.251Z,1.00
2022-10-20T16:54:10.958Z,0.75
2022-10-20T16:56:38.321Z,1.05
2022-10-20T16:59:05.539Z,1.33
2022-10-20T17:01:32.990Z,1.10
2022-10-20T17:04:00.391Z,0.80
2022-10-20T17:06:28.038Z,0.80
2022-10-20T17:08:58.177Z,0.80
2022-10-20T17:11:29.428Z,0.88
2022-10-20T17:13:57.421Z,0.88
2022-10-20T17:16:28.617Z,0.93
2022-10-20T17:18:57.203Z,0.90
2022-10-20T17:21:25.326Z,1.08
2022-10-20T17:23:52.806Z,0.77
2022-10-20T17:26:22.939Z,1.17
2022-10-20T17:28:54.512Z,1.25
2022-10-20T17:31:22.086Z,0.75
2022-10-20T17:33:49.400Z,0.90
2022-10-20T17:36:18.035Z,1.00
2022-10-20T17:38:45.289Z,1.35
2022-10-20T17:41:14.589Z,1.17
2022-10-20T17:43:42.360Z,1.50
2022-10-20T17:46:13.966Z,1.15
2022-10-20T17:48:41.866Z,1.25
2022-10-20T17:51:12.007Z,1.02
2022-10-20T17:53:40.900Z,0.70
2022-10-20T17:56:11.667Z,0.95
2022-10-20T17:58:39.668Z,1.50
2022-10-20T18:01:14.207Z,1.02
2022-10-20T18:03:43.038Z,1.25
2022-10-20T18:06:12.255Z,1.33
2022-10-20T18:08:39.811Z,0.95
2022-10-20T18:11:11.116Z,1.45
2022-10-20T18:13:38.759Z,1.63
2022-10-20T18:16:07.647Z,1.55
2022-10-20T18:18:36.598Z,1.52
2022-10-20T18:21:05.588Z,1.60
2022-10-20T18:23:36.140Z,1.65
2022-10-20T18:26:08.450Z,1.35
2022-10-20T18:28:36.544Z,1.55
2022-10-20T18:31:05.473Z,1.45
2022-10-20T18:33:33.086Z,1.73
2022-10-20T18:36:04.671Z,1.38
2022-10-20T18:38:35.551Z,1.20
2022-10-20T18:41:07.924Z,1.48
2022-10-20T18:43:35.685Z,1.90
2022-10-20T18:46:04.327Z,1.52
2022-10-20T18:48:32.295Z,1.23
2022-10-20T18:51:01.855Z,1.60
2022-10-20T18:53:31.995Z,1.02
2022-10-20T18:56:00.847Z,1.23
2022-10-20T18:58:28.754Z,1.50
2022-10-20T19:01:00.629Z,1.27
2022-10-20T19:03:31.370Z,1.52
2022-10-20T19:05:59.707Z,1.40
2022-10-20T19:08:27.151Z,1.02
2022-10-20T19:10:56.353Z,1.40
2022-10-20T19:13:25.570Z,1.40
2022-10-20T19:15:53.206Z,1.38
2022-10-20T19:18:21.025Z,1.33
2022-10-20T19:20:55.014Z,1.98
2022-10-20T19:23:22.874Z,1.27
2022-10-20T19:26:04.217Z,1.23
2022-10-20T19:28:33.064Z,1.58
2022-10-20T19:31:01.729Z,0.30
2022-10-20T19:33:29.601Z,1.95
2022-10-20T19:35:56.989Z,1.20
2022-10-20T19:38:24.491Z,1.30
2022-10-20T19:40:51.723Z,1.42
2022-10-20T19:43:20.518Z,1.27
2022-10-20T19:45:49.773Z,2.80
2022-10-20T19:48:17.406Z,1.35
2022-10-20T19:50:44.880Z,1.50
2022-10-20T19:53:12.191Z,1.08
2022-10-20T19:55:41.060Z,1.92
2022-10-20T20:00:44.975Z,0.90
2022-10-20T20:03:12.763Z,1.75
2022-10-20T20:05:40.354Z,1.40
2022-10-20T20:08:09.093Z,0.88
2022-10-20T20:10:37.979Z,1.00
2022-10-20T20:13:05.399Z,1.23
2022-10-20T20:15:32.978Z,1.42
2022-10-20T20:18:01.689Z,3.40
2022-10-20T20:20:28.996Z,1.27
2022-10-20T20:22:56.326Z,1.30
2022-10-20T20:25:24.670Z,1.20
2022-10-20T20:27:54.161Z,1.65
2022-10-20T20:30:21.458Z,1.38
2022-10-20T20:32:52.081Z,1.23
2022-10-20T20:35:25.599Z,1.73
2022-10-20T20:37:52.969Z,1.80
2022-10-20T20:40:21.233Z,1.70
2022-10-20T20:42:51.653Z,1.83
2022-10-20T20:45:18.841Z,2.15
2022-10-20T20:47:48.037Z,1.50
2022-10-20T20:50:15.403Z,1.40
2022-10-20T20:52:44.064Z,0.90
2022-10-20T20:55:14.070Z,0.95
2022-10-20T20:57:41.546Z,2.05
2022-10-20T21:00:10.368Z,1.75
2022-10-20T21:02:37.554Z,1.42
2022-10-20T21:05:05.687Z,1.77
2022-10-20T21:07:33.017Z,1.70
2022-10-20T21:10:01.804Z,1.25
2022-10-20T21:12:34.508Z,2.17
2022-10-20T21:15:02.676Z,1.33
2022-10-20T21:17:31.645Z,1.20
2022-10-20T21:19:58.924Z,1.85
2022-10-20T21:22:26.215Z,1.65
2022-10-20T21:24:54.156Z,1.92
2022-10-20T21:27:23.586Z,1.13
2022-10-20T21:29:51.538Z,1.33
2022-10-20T21:32:20.476Z,2.13
2022-10-20T21:34:49.508Z,1.80
2022-10-20T21:37:16.818Z,1.58
2022-10-20T21:39:44.297Z,1.73
2022-10-20T21:42:11.470Z,1.30
2022-10-20T21:44:40.104Z,2.05
2022-10-20T21:47:07.308Z,1.27
2022-10-20T21:49:34.903Z,1.55
2022-10-20T21:52:02.091Z,1.25
2022-10-20T21:54:29.682Z,1.33
2022-10-20T21:56:57.528Z,1.75
2022-10-20T21:59:26.753Z,1.38
2022-10-20T22:01:57.773Z,1.40
2022-10-20T22:04:26.568Z,1.27
2022-10-20T22:06:54.677Z,1.52
2022-10-20T22:09:22.492Z,1.38
2022-10-20T22:11:51.823Z,0.50
2022-10-20T22:14:19.600Z,1.63
2022-10-20T22:16:46.916Z,1.25
2022-10-20T22:19:18.007Z,1.80
2022-10-20T22:21:47.334Z,1.00
2022-10-20T22:24:15.381Z,1.70
2022-10-20T22:26:43.413Z,1.67
2022-10-20T22:29:11.104Z,1.17
2022-10-20T22:31:39.447Z,1.02
2022-10-20T22:34:07.462Z,0.88
2022-10-20T22:36:36.189Z,1.25
2022-10-20T22:39:03.910Z,0.90
2022-10-20T22:41:31.188Z,1.00
2022-10-20T22:43:58.631Z,0.93
2022-10-20T22:46:26.045Z,1.33
2022-10-20T22:48:53.409Z,0.85
2022-10-20T22:51:20.881Z,0.77
2022-10-20T22:53:49.430Z,0.75
2022-10-20T22:56:18.846Z,0.60
2022-10-20T22:58:46.613Z,0.80
2022-10-20T23:01:17.121Z,0.77
2022-10-20T23:03:45.464Z,1.10
2022-10-20T23:06:14.452Z,0.70
2022-10-20T23:08:43.567Z,1.10
2022-10-20T23:11:13.085Z,1.00
2022-10-20T23:13:40.626Z,0.77
2022-10-20T23:16:08.403Z,1.23
2022-10-20T23:18:35.823Z,0.88
2022-10-20T23:21:03.774Z,1.00
2022-10-20T23:23:31.352Z,0.98
2022-10-20T23:26:00.896Z,1.27
2022-10-20T23:28:32.453Z,1.08
2022-10-20T23:31:08.235Z,1.10
2022-10-20T23:33:35.870Z,0.77
2022-10-20T23:36:03.697Z,1.42
2022-10-20T23:38:31.390Z,1.02
2022-10-20T23:40:58.760Z,1.00
2022-10-20T23:43:26.070Z,0.88
2022-10-20T23:45:54.733Z,1.13
2022-10-20T23:48:22.062Z,0.82
2022-10-20T23:50:49.256Z,1.17
2022-10-20T23:53:16.456Z,0.70
2022-10-20T23:55:44.186Z,1.40
2022-10-20T23:58:11.860Z,0.77
